sensor_id;sensor_type;location;lat;lon;timestamp;P1;durP1;ratioP1;P2;durP2;ratioP2
19812;SDS011;10066;48.108;11.448;2023-10-09T01:21:01;18.23;;;4.70;;
19812;SDS011;10066;48.108;11.448;2023-10-09T01:23:30;16.77;;;4.93;;
19812;SDS011;10066;48.108;11.448;2023-10-09T01:25:56;16.20;;;4.73;;
19812;SDS011;10066;48.108;11.448;2023-10-09T01:28:23;14.17;;;4.50;;
19812;SDS011;10066;48.108;11.448;2023-10-09T01:30:51;13.00;;;4.90;;
19812;SDS011;10066;48.108;11.448;2023-10-09T01:33:20;14.83;;;4.73;;
19812;SDS011;10066;48.108;11.448;2023-10-09T01:35:49;15.80;;;5.23;;
19812;SDS011;10066;48.108;11.448;2023-10-09T01:38:21;17.67;;;4.77;;
19812;SDS011;10066;48.108;11.448;2023-10-09T01:41:00;15.10;;;4.30;;
19812;SDS011;10066;48.108;11.448;2023-10-09T01:43:32;14.90;;;5.30;;
19812;SDS011;10066;48.108;11.448;2023-10-09T06:34:25;13.50;;;3.80;;
19812;SDS011;10066;48.108;11.448;2023-10-09T06:37:00;17.23;;;3.80;;
19812;SDS011;10066;48.108;11.448;2023-10-09T06:39:34;18.13;;;4.10;;
19812;SDS011;10066;48.108;11.448;2023-10-09T06:42:15;17.00;;;4.17;;
19812;SDS011;10066;48.108;11.448;2023-10-09T06:45:11;12.13;;;3.87;;
19812;SDS011;10066;48.108;11.448;2023-10-09T06:47:42;14.27;;;3.83;;
19812;SDS011;10066;48.108;11.448;2023-10-09T06:55:43;13.70;;;4.30;;
19812;SDS011;10066;48.108;11.448;2023-10-09T07:00:49;20.40;;;4.23;;
19812;SDS011;10066;48.108;11.448;2023-10-09T07:08:49;11.57;;;4.13;;
19812;SDS011;10066;48.108;11.448;2023-10-09T07:11:38;12.80;;;3.70;;
19812;SDS011;10066;48.108;11.448;2023-10-09T07:14:24;15.97;;;4.83;;
19812;SDS011;10066;48.108;11.448;2023-10-09T07:17:10;19.83;;;4.43;;
19812;SDS011;10066;48.108;11.448;2023-10-09T07:19:48;20.10;;;4.20;;
19812;SDS011;10066;48.108;11.448;2023-10-09T07:25:05;14.60;;;3.90;;
19812;SDS011;10066;48.108;11.448;2023-10-09T08:56:08;19.60;;;3.07;;
19812;SDS011;10066;48.108;11.448;2023-10-09T08:58:35;18.43;;;3.57;;
19812;SDS011;10066;48.108;11.448;2023-10-09T09:01:03;17.93;;;3.73;;
19812;SDS011;10066;48.108;11.448;2023-10-09T09:03:37;18.03;;;3.33;;
19812;SDS011;10066;48.108;11.448;2023-10-09T09:06:06;17.03;;;3.37;;
19812;SDS011;10066;48.108;11.448;2023-10-09T09:08:34;19.33;;;3.53;;
19812;SDS011;10066;48.108;11.448;2023-10-09T09:11:02;18.47;;;3.27;;
19812;SDS011;10066;48.108;11.448;2023-10-09T09:13:40;18.30;;;3.83;;
19812;SDS011;10066;48.108;11.448;2023-10-09T09:16:14;16.87;;;3.60;;
19812;SDS011;10066;48.108;11.448;2023-10-09T09:18:49;20.00;;;3.60;;
19812;SDS011;10066;48.108;11.448;2023-10-09T09:21:26;17.07;;;3.40;;
19812;SDS011;10066;48.108;11.448;2023-10-09T09:23:56;13.07;;;3.17;;
19812;SDS011;10066;48.108;11.448;2023-10-09T09:29:12;14.97;;;3.17;;
19812;SDS011;10066;48.108;11.448;2023-10-09T09:31:53;10.30;;;3.10;;
19812;SDS011;10066;48.108;11.448;2023-10-09T09:34:22;18.00;;;3.37;;
19812;SDS011;10066;48.108;11.448;2023-10-09T09:36:54;18.70;;;3.53;;
19812;SDS011;10066;48.108;11.448;2023-10-09T09:39:24;15.13;;;3.53;;
19812;SDS011;10066;48.108;11.448;2023-10-09T09:41:55;13.90;;;2.90;;
19812;SDS011;10066;48.108;11.448;2023-10-09T09:44:31;13.30;;;2.53;;
19812;SDS011;10066;48.108;11.448;2023-10-09T09:47:08;12.67;;;2.80;;
19812;SDS011;10066;48.108;11.448;2023-10-09T09:49:39;15.93;;;3.70;;
19812;SDS011;10066;48.108;11.448;2023-10-09T09:52:08;14.97;;;2.97;;
19812;SDS011;10066;48.108;11.448;2023-10-09T09:54:38;12.43;;;3.03;;
19812;SDS011;10066;48.108;11.448;2023-10-09T09:57:06;15.27;;;3.37;;
19812;SDS011;10066;48.108;11.448;2023-10-09T09:59:38;19.20;;;3.23;;
19812;SDS011;10066;48.108;11.448;2023-10-09T10:02:15;14.23;;;3.10;;
19812;SDS011;10066;48.108;11.448;2023-10-09T10:04:47;16.23;;;3.30;;
19812;SDS011;10066;48.108;11.448;2023-10-09T10:07:20;15.53;;;3.33;;
19812;SDS011;10066;48.108;11.448;2023-10-09T10:09:51;25.90;;;3.03;;
19812;SDS011;10066;48.108;11.448;2023-10-09T10:15:40;18.77;;;3.47;;
19812;SDS011;10066;48.108;11.448;2023-10-09T10:18:29;15.33;;;3.17;;
19812;SDS011;10066;48.108;11.448;2023-10-09T10:21:09;10.47;;;3.20;;
19812;SDS011;10066;48.108;11.448;2023-10-09T10:23:41;14.50;;;3.60;;
19812;SDS011;10066;48.108;11.448;2023-10-09T10:26:19;22.97;;;3.47;;
19812;SDS011;10066;48.108;11.448;2023-10-09T10:31:55;20.90;;;3.57;;
19812;SDS011;10066;48.108;11.448;2023-10-09T10:34:25;19.00;;;3.47;;
19812;SDS011;10066;48.108;11.448;2023-10-09T10:36:53;17.17;;;3.33;;
19812;SDS011;10066;48.108;11.448;2023-10-09T10:39:24;18.83;;;3.20;;
19812;SDS011;10066;48.108;11.448;2023-10-09T10:42:07;15.23;;;3.77;;
19812;SDS011;10066;48.108;11.448;2023-10-09T10:44:40;19.67;;;3.60;;
19812;SDS011;10066;48.108;11.448;2023-10-09T10:47:11;16.83;;;3.53;;
19812;SDS011;10066;48.108;11.448;2023-10-09T10:49:48;22.07;;;3.40;;
19812;SDS011;10066;48.108;11.448;2023-10-09T10:52:21;17.10;;;3.70;;
19812;SDS011;10066;48.108;11.448;2023-10-09T10:55:07;17.65;;;3.70;;
19812;SDS011;10066;48.108;11.448;2023-10-09T10:58:16;16.17;;;4.27;;
19812;SDS011;10066;48.108;11.448;2023-10-09T11:00:51;16.90;;;3.70;;
19812;SDS011;10066;48.108;11.448;2023-10-09T11:03:36;17.77;;;3.60;;
19812;SDS011;10066;48.108;11.448;2023-10-09T11:09:03;19.40;;;4.60;;
19812;SDS011;10066;48.108;11.448;2023-10-09T11:14:15;18.33;;;4.00;;
19812;SDS011;10066;48.108;11.448;2023-10-09T11:16:48;17.80;;;3.80;;
19812;SDS011;10066;48.108;11.448;2023-10-09T11:19:19;16.23;;;3.97;;
19812;SDS011;10066;48.108;11.448;2023-10-09T11:22:04;17.10;;;3.67;;
19812;SDS011;10066;48.108;11.448;2023-10-09T11:24:48;16.23;;;4.13;;
19812;SDS011;10066;48.108;11.448;2023-10-09T11:27:30;17.97;;;4.50;;
19812;SDS011;10066;48.108;11.448;2023-10-09T11:30:07;22.93;;;4.77;;
19812;SDS011;10066;48.108;11.448;2023-10-09T11:32:46;19.33;;;5.00;;
19812;SDS011;10066;48.108;11.448;2023-10-09T11:35:15;24.07;;;4.63;;
19812;SDS011;10066;48.108;11.448;2023-10-09T11:37:55;25.25;;;4.90;;
19812;SDS011;10066;48.108;11.448;2023-10-09T12:13:41;19.27;;;3.83;;
19812;SDS011;10066;48.108;11.448;2023-10-09T12:16:08;15.87;;;3.77;;
19812;SDS011;10066;48.108;11.448;2023-10-09T12:18:36;22.90;;;4.30;;
19812;SDS011;10066;48.108;11.448;2023-10-09T12:21:04;22.67;;;4.47;;
19812;SDS011;10066;48.108;11.448;2023-10-09T12:23:31;17.67;;;4.47;;
19812;SDS011;10066;48.108;11.448;2023-10-09T12:26:01;21.13;;;4.70;;
19812;SDS011;10066;48.108;11.448;2023-10-09T12:28:28;21.20;;;4.60;;
19812;SDS011;10066;48.108;11.448;2023-10-09T12:30:58;27.43;;;4.07;;
19812;SDS011;10066;48.108;11.448;2023-10-09T12:33:27;23.83;;;5.10;;
19812;SDS011;10066;48.108;11.448;2023-10-09T12:35:56;24.87;;;3.97;;
19812;SDS011;10066;48.108;11.448;2023-10-09T12:38:25;19.73;;;3.77;;
19812;SDS011;10066;48.108;11.448;2023-10-09T12:41:00;22.90;;;4.07;;
19812;SDS011;10066;48.108;11.448;2023-10-09T12:43:33;23.00;;;4.77;;
19812;SDS011;10066;48.108;11.448;2023-10-09T12:46:04;22.37;;;4.87;;
19812;SDS011;10066;48.108;11.448;2023-10-09T12:48:33;22.40;;;3.80;;
19812;SDS011;10066;48.108;11.448;2023-10-09T12:51:04;17.57;;;4.50;;
19812;SDS011;10066;48.108;11.448;2023-10-09T12:53:32;26.10;;;4.27;;
19812;SDS011;10066;48.108;11.448;2023-10-09T12:55:59;19.50;;;4.77;;
19812;SDS011;10066;48.108;11.448;2023-10-09T12:58:26;20.23;;;4.50;;
19812;SDS011;10066;48.108;11.448;2023-10-09T13:00:53;14.47;;;4.43;;
19812;SDS011;10066;48.108;11.448;2023-10-09T13:03:20;24.50;;;4.53;;
19812;SDS011;10066;48.108;11.448;2023-10-09T13:05:47;24.10;;;4.70;;
19812;SDS011;10066;48.108;11.448;2023-10-09T13:08:21;22.80;;;5.03;;
19812;SDS011;10066;48.108;11.448;2023-10-09T13:10:50;21.37;;;4.57;;
19812;SDS011;10066;48.108;11.448;2023-10-09T13:13:24;20.70;;;4.63;;
19812;SDS011;10066;48.108;11.448;2023-10-09T13:16:02;23.27;;;4.30;;
19812;SDS011;10066;48.108;11.448;2023-10-09T13:18:31;17.23;;;4.70;;
19812;SDS011;10066;48.108;11.448;2023-10-09T13:20:58;22.73;;;5.20;;
19812;SDS011;10066;48.108;11.448;2023-10-09T13:23:30;19.67;;;4.60;;
19812;SDS011;10066;48.108;11.448;2023-10-09T13:26:04;27.20;;;4.60;;
19812;SDS011;10066;48.108;11.448;2023-10-09T13:28:46;21.47;;;4.47;;
19812;SDS011;10066;48.108;11.448;2023-10-09T13:31:15;21.70;;;4.23;;
19812;SDS011;10066;48.108;11.448;2023-10-09T13:33:42;21.87;;;5.23;;
19812;SDS011;10066;48.108;11.448;2023-10-09T13:36:11;18.37;;;4.43;;
19812;SDS011;10066;48.108;11.448;2023-10-09T13:38:45;20.17;;;3.90;;
19812;SDS011;10066;48.108;11.448;2023-10-09T13:41:12;23.37;;;4.40;;
19812;SDS011;10066;48.108;11.448;2023-10-09T13:43:40;23.23;;;4.37;;
19812;SDS011;10066;48.108;11.448;2023-10-09T13:46:09;21.03;;;4.20;;
19812;SDS011;10066;48.108;11.448;2023-10-09T13:48:37;27.00;;;4.97;;
19812;SDS011;10066;48.108;11.448;2023-10-09T13:51:06;22.07;;;4.07;;
19812;SDS011;10066;48.108;11.448;2023-10-09T13:53:38;27.47;;;4.30;;
19812;SDS011;10066;48.108;11.448;2023-10-09T13:56:11;22.27;;;3.90;;
19812;SDS011;10066;48.108;11.448;2023-10-09T13:58:43;18.33;;;3.93;;
19812;SDS011;10066;48.108;11.448;2023-10-09T14:01:11;17.77;;;4.30;;
19812;SDS011;10066;48.108;11.448;2023-10-09T14:03:45;27.03;;;4.40;;
19812;SDS011;10066;48.108;11.448;2023-10-09T14:06:16;20.23;;;3.83;;
19812;SDS011;10066;48.108;11.448;2023-10-09T14:08:55;23.60;;;4.60;;
19812;SDS011;10066;48.108;11.448;2023-10-09T14:11:24;22.47;;;4.97;;
19812;SDS011;10066;48.108;11.448;2023-10-09T14:13:51;15.33;;;4.03;;
19812;SDS011;10066;48.108;11.448;2023-10-09T14:16:18;16.37;;;4.47;;
19812;SDS011;10066;48.108;11.448;2023-10-09T14:18:52;18.30;;;4.07;;
19812;SDS011;10066;48.108;11.448;2023-10-09T14:21:22;16.25;;;3.80;;
19812;SDS011;10066;48.108;11.448;2023-10-09T14:31:15;18.50;;;3.60;;
19812;SDS011;10066;48.108;11.448;2023-10-09T14:33:47;18.83;;;4.50;;
19812;SDS011;10066;48.108;11.448;2023-10-09T14:36:16;22.00;;;4.23;;
19812;SDS011;10066;48.108;11.448;2023-10-09T14:38:44;17.03;;;4.10;;
19812;SDS011;10066;48.108;11.448;2023-10-09T14:41:12;14.60;;;4.13;;
19812;SDS011;10066;48.108;11.448;2023-10-09T14:43:39;17.20;;;4.10;;
19812;SDS011;10066;48.108;11.448;2023-10-09T14:46:12;20.73;;;4.30;;
19812;SDS011;10066;48.108;11.448;2023-10-09T14:48:39;15.20;;;4.17;;
19812;SDS011;10066;48.108;11.448;2023-10-09T14:51:10;15.30;;;4.00;;
19812;SDS011;10066;48.108;11.448;2023-10-09T14:53:38;23.80;;;4.70;;
19812;SDS011;10066;48.108;11.448;2023-10-09T15:01:10;17.47;;;3.83;;
19812;SDS011;10066;48.108;11.448;2023-10-09T15:03:40;17.20;;;4.10;;
19812;SDS011;10066;48.108;11.448;2023-10-09T16:42:31;19.73;;;4.93;;
19812;SDS011;10066;48.108;11.448;2023-10-09T16:45:02;17.03;;;4.23;;
19812;SDS011;10066;48.108;11.448;2023-10-09T16:47:34;15.17;;;4.80;;
19812;SDS011;10066;48.108;11.448;2023-10-09T16:50:04;20.87;;;4.30;;
19812;SDS011;10066;48.108;11.448;2023-10-09T16:52:34;18.40;;;4.40;;
19812;SDS011;10066;48.108;11.448;2023-10-09T16:55:03;18.67;;;4.40;;
19812;SDS011;10066;48.108;11.448;2023-10-09T16:57:34;15.37;;;3.87;;
19812;SDS011;10066;48.108;11.448;2023-10-09T17:00:06;16.40;;;4.33;;
19812;SDS011;10066;48.108;11.448;2023-10-09T17:02:43;19.00;;;4.17;;
19812;SDS011;10066;48.108;11.448;2023-10-09T17:05:12;14.60;;;4.10;;
19812;SDS011;10066;48.108;11.448;2023-10-09T17:07:39;18.43;;;4.00;;
19812;SDS011;10066;48.108;11.448;2023-10-09T17:10:10;19.10;;;4.77;;
19812;SDS011;10066;48.108;11.448;2023-10-09T17:12:41;19.60;;;3.93;;
19812;SDS011;10066;48.108;11.448;2023-10-09T17:15:14;12.10;;;4.10;;
19812;SDS011;10066;48.108;11.448;2023-10-09T17:17:44;20.93;;;4.50;;
19812;SDS011;10066;48.108;11.448;2023-10-09T17:20:14;14.80;;;4.47;;
19812;SDS011;10066;48.108;11.448;2023-10-09T17:22:42;17.43;;;4.30;;
19812;SDS011;10066;48.108;11.448;2023-10-09T17:25:11;16.97;;;5.07;;
19812;SDS011;10066;48.108;11.448;2023-10-09T17:27:38;17.17;;;4.47;;
19812;SDS011;10066;48.108;11.448;2023-10-09T17:30:07;19.67;;;4.30;;
19812;SDS011;10066;48.108;11.448;2023-10-09T17:32:36;15.93;;;4.87;;
19812;SDS011;10066;48.108;11.448;2023-10-09T17:35:04;12.93;;;4.00;;
19812;SDS011;10066;48.108;11.448;2023-10-09T17:37:35;13.33;;;3.87;;
19812;SDS011;10066;48.108;11.448;2023-10-09T17:40:04;17.00;;;4.13;;
19812;SDS011;10066;48.108;11.448;2023-10-09T17:42:33;18.17;;;5.00;;
19812;SDS011;10066;48.108;11.448;2023-10-09T17:45:00;16.17;;;4.20;;
19812;SDS011;10066;48.108;11.448;2023-10-09T17:47:30;18.10;;;4.20;;
19812;SDS011;10066;48.108;11.448;2023-10-09T17:50:01;16.13;;;4.93;;
19812;SDS011;10066;48.108;11.448;2023-10-09T17:52:30;17.57;;;4.23;;
19812;SDS011;10066;48.108;11.448;2023-10-09T17:54:59;21.17;;;4.53;;
19812;SDS011;10066;48.108;11.448;2023-10-09T17:57:31;11.67;;;4.07;;
19812;SDS011;10066;48.108;11.448;2023-10-09T17:59:58;16.37;;;4.27;;
19812;SDS011;10066;48.108;11.448;2023-10-09T18:02:25;15.50;;;4.03;;
19812;SDS011;10066;48.108;11.448;2023-10-09T18:04:53;14.23;;;4.17;;
19812;SDS011;10066;48.108;11.448;2023-10-09T18:07:21;16.40;;;3.80;;
19812;SDS011;10066;48.108;11.448;2023-10-09T18:09:49;16.83;;;4.37;;
19812;SDS011;10066;48.108;11.448;2023-10-09T18:12:18;16.97;;;4.00;;
19812;SDS011;10066;48.108;11.448;2023-10-09T18:14:46;22.47;;;4.17;;
19812;SDS011;10066;48.108;11.448;2023-10-09T18:17:17;15.53;;;4.23;;
19812;SDS011;10066;48.108;11.448;2023-10-09T18:19:45;17.70;;;4.67;;
19812;SDS011;10066;48.108;11.448;2023-10-09T18:22:13;13.50;;;4.10;;
19812;SDS011;10066;48.108;11.448;2023-10-09T18:24:41;16.60;;;4.47;;
19812;SDS011;10066;48.108;11.448;2023-10-09T18:27:08;13.73;;;4.87;;
19812;SDS011;10066;48.108;11.448;2023-10-09T18:29:37;15.87;;;4.40;;
19812;SDS011;10066;48.108;11.448;2023-10-09T18:32:04;12.70;;;3.97;;
19812;SDS011;10066;48.108;11.448;2023-10-09T18:34:31;20.93;;;4.17;;
19812;SDS011;10066;48.108;11.448;2023-10-09T18:36:58;17.80;;;4.03;;
19812;SDS011;10066;48.108;11.448;2023-10-09T18:39:25;17.00;;;3.83;;
19812;SDS011;10066;48.108;11.448;2023-10-09T18:41:53;18.33;;;3.70;;
19812;SDS011;10066;48.108;11.448;2023-10-09T18:44:21;12.40;;;3.40;;
19812;SDS011;10066;48.108;11.448;2023-10-09T18:46:48;17.57;;;3.70;;
19812;SDS011;10066;48.108;11.448;2023-10-09T18:49:15;17.00;;;3.10;;
19812;SDS011;10066;48.108;11.448;2023-10-09T18:51:43;12.73;;;3.57;;
19812;SDS011;10066;48.108;11.448;2023-10-09T18:54:11;11.63;;;3.50;;
19812;SDS011;10066;48.108;11.448;2023-10-09T18:56:38;16.43;;;3.60;;
19812;SDS011;10066;48.108;11.448;2023-10-09T18:59:06;12.87;;;3.63;;
19812;SDS011;10066;48.108;11.448;2023-10-09T19:01:33;15.37;;;3.83;;
19812;SDS011;10066;48.108;11.448;2023-10-09T19:04:01;14.63;;;3.37;;
19812;SDS011;10066;48.108;11.448;2023-10-09T19:06:33;17.53;;;3.90;;
19812;SDS011;10066;48.108;11.448;2023-10-09T19:09:01;15.57;;;3.70;;
19812;SDS011;10066;48.108;11.448;2023-10-09T19:11:29;17.07;;;4.23;;
19812;SDS011;10066;48.108;11.448;2023-10-09T19:13:57;13.40;;;3.40;;
19812;SDS011;10066;48.108;11.448;2023-10-09T19:16:27;15.53;;;3.43;;
19812;SDS011;10066;48.108;11.448;2023-10-09T19:18:54;14.43;;;3.93;;
19812;SDS011;10066;48.108;11.448;2023-10-09T19:21:29;16.07;;;3.17;;
19812;SDS011;10066;48.108;11.448;2023-10-09T19:23:57;16.80;;;3.93;;
19812;SDS011;10066;48.108;11.448;2023-10-09T19:26:24;16.17;;;3.67;;
19812;SDS011;10066;48.108;11.448;2023-10-09T19:28:59;24.70;;;4.00;;
19812;SDS011;10066;48.108;11.448;2023-10-09T19:31:27;15.10;;;3.50;;
19812;SDS011;10066;48.108;11.448;2023-10-09T19:33:57;18.10;;;3.80;;
19812;SDS011;10066;48.108;11.448;2023-10-09T19:36:24;13.70;;;3.50;;
19812;SDS011;10066;48.108;11.448;2023-10-09T19:38:52;16.63;;;3.83;;
19812;SDS011;10066;48.108;11.448;2023-10-09T19:41:19;15.03;;;2.90;;
19812;SDS011;10066;48.108;11.448;2023-10-09T19:43:48;14.53;;;3.77;;
19812;SDS011;10066;48.108;11.448;2023-10-09T19:46:15;16.10;;;3.80;;
19812;SDS011;10066;48.108;11.448;2023-10-09T19:48:44;11.03;;;3.00;;
19812;SDS011;10066;48.108;11.448;2023-10-09T19:51:12;19.13;;;3.73;;
19812;SDS011;10066;48.108;11.448;2023-10-09T19:53:40;12.00;;;3.03;;
19812;SDS011;10066;48.108;11.448;2023-10-09T19:56:08;13.93;;;3.57;;
19812;SDS011;10066;48.108;11.448;2023-10-09T19:58:35;11.87;;;3.20;;
19812;SDS011;10066;48.108;11.448;2023-10-09T20:01:06;18.23;;;3.37;;
19812;SDS011;10066;48.108;11.448;2023-10-09T20:03:33;18.13;;;3.60;;
19812;SDS011;10066;48.108;11.448;2023-10-09T20:06:04;12.97;;;3.10;;
19812;SDS011;10066;48.108;11.448;2023-10-09T20:08:33;11.53;;;3.20;;
19812;SDS011;10066;48.108;11.448;2023-10-09T20:11:03;14.30;;;4.07;;
